Wednesday, September 20, 2017, 9:33 PM EDT

KPTW, Pottstown Limerick Airport

Location: Royersford, PA, United States Lat: 40.233
Local Time: 9:33 PM EDT ( 1:33 GMT) Lon: -75.55
Time Zone: US/Eastern Elev: 291 ft

Show me the last for .
Show Decoded

2017-09-20 20:54 METAR KPTW 210054Z AUTO 00000KT 10SM CLR 21/19 A2996 RMK AO2 SLP141 T02110189 =
2017-09-20 19:54 METAR KPTW 202354Z AUTO 04003KT 10SM FEW055 23/19 A2996 RMK AO2 SLP140 T02280189
                 10294 20228 51013 =
2017-09-20 18:54 METAR KPTW 202254Z AUTO 00000KT 10SM OVC055 25/21 A2995 RMK AO2 SLP136 T02500206
                 =
2017-09-20 17:54 METAR KPTW 202154Z AUTO 06003KT 10SM CLR 28/17 A2993 RMK AO2 SLP131 T02780172 =
2017-09-20 16:54 METAR KPTW 202054Z AUTO 04008KT 10SM CLR 27/18 A2992 RMK AO2 SLP126 T02720178
                 55003 =
2017-09-20 15:54 METAR KPTW 201954Z AUTO 03006KT 10SM FEW050 SCT060 29/17 A2991 RMK AO2 SLP123
                 T02940172 =
2017-09-20 13:54 METAR KPTW 201754Z AUTO 35006KT 10SM CLR 28/18 A2993 RMK AO2 SLP129 T02830183
                 10283 20183 56010 =
2017-09-20 12:54 METAR KPTW 201654Z AUTO 02008G16KT 350V050 10SM CLR 27/18 A2993 RMK AO2 SLP132
                 T02720183 =
2017-09-20 11:54 METAR KPTW 201554Z AUTO 01007KT 10SM CLR 26/18 A2995 RMK AO2 SLP137 T02610183 $
                 =
2017-09-20 07:54 METAR KPTW 201154Z AUTO 00000KT 9SM CLR 19/18 A2995 RMK AO2 SLP136 70009
                 T01890178 10211 20183 51020 $ =
2017-09-20 06:54 METAR KPTW 201054Z AUTO 00000KT 10SM CLR 19/17 A2993 RMK AO2 SLP131 T01890172 $
                 =
2017-09-20 05:54 METAR KPTW 200954Z AUTO 34003KT 10SM CLR 19/17 A2991 RMK AO2 SLP123 T01940172 $
                 =
2017-09-20 04:54 METAR KPTW 200854Z AUTO 36008KT 10SM CLR 21/17 A2989 RMK AO2 SLP115 T02060172
                 58006 $ =
2017-09-20 04:13 METAR KPTW 200813Z AUTO 02007KT 10SM SCT027 OVC100 21/17 A2989 RMK AO2 T02060172
                 $ =
2017-09-20 03:54 METAR KPTW 200754Z AUTO 34006KT 10SM BKN027 21/17 A2990 RMK AO2 SLP119 T02060172
                 $ =
2017-09-20 03:50 METAR KPTW 200750Z AUTO 33005KT 10SM BKN029 BKN100 21/18 A2990 RMK AO2 $ =
2017-09-20 02:54 METAR KPTW 200654Z AUTO 33004KT 10SM CLR 20/18 A2990 RMK AO2 SLP121 T02000178 $
                 =
2017-09-20 01:54 METAR KPTW 200554Z AUTO 34006KT 10SM CLR 20/18 A2991 RMK AO2 SLP123 60009
                 T02000178 10239 20194 $ =
2017-09-19 23:54 METAR KPTW 200354Z AUTO 36007KT 10SM 20/19 A2992 RMK AO2 RAE19 SLP125 P0002
                 T02000189 $ =
2017-09-19 22:54 METAR KPTW 200254Z AUTO 36011KT 4SM -RA BR FEW030 OVC048 20/19 A2993 RMK AO2
                 RAB11 SLP132 P0007 60007 T02000194 50007 =
2017-09-19 21:54 METAR KPTW 200154Z AUTO 04010KT 10SM OVC060 23/17 A2994 RMK AO2 SLP132 T02280172
                 =

Support USWX by starting your Amazon purchase here.